sensor_id;sensor_type;location;lat;lon;timestamp;P1;durP1;ratioP1;P2;durP2;ratioP2
20621;SDS011;10470;42.670;23.354;2023-01-16T00:00:23;58.90;;;29.27;;
20621;SDS011;10470;42.670;23.354;2023-01-16T00:03:08;56.97;;;28.33;;
20621;SDS011;10470;42.670;23.354;2023-01-16T00:05:54;55.37;;;28.83;;
20621;SDS011;10470;42.670;23.354;2023-01-16T00:08:40;58.63;;;27.73;;
20621;SDS011;10470;42.670;23.354;2023-01-16T00:11:27;54.20;;;27.37;;
20621;SDS011;10470;42.670;23.354;2023-01-16T00:14:12;56.07;;;27.87;;
20621;SDS011;10470;42.670;23.354;2023-01-16T00:16:58;55.63;;;29.23;;
20621;SDS011;10470;42.670;23.354;2023-01-16T00:19:38;55.57;;;27.47;;
20621;SDS011;10470;42.670;23.354;2023-01-16T00:22:23;55.80;;;27.93;;
20621;SDS011;10470;42.670;23.354;2023-01-16T00:25:09;54.70;;;28.40;;
20621;SDS011;10470;42.670;23.354;2023-01-16T00:27:54;56.83;;;27.33;;
20621;SDS011;10470;42.670;23.354;2023-01-16T00:30:41;53.07;;;25.47;;
20621;SDS011;10470;42.670;23.354;2023-01-16T00:33:27;54.13;;;25.53;;
20621;SDS011;10470;42.670;23.354;2023-01-16T00:36:12;52.23;;;26.93;;
20621;SDS011;10470;42.670;23.354;2023-01-16T00:38:58;54.63;;;24.40;;
20621;SDS011;10470;42.670;23.354;2023-01-16T00:41:43;53.83;;;26.03;;
20621;SDS011;10470;42.670;23.354;2023-01-16T00:44:29;51.23;;;25.63;;
20621;SDS011;10470;42.670;23.354;2023-01-16T00:47:14;55.07;;;25.57;;
20621;SDS011;10470;42.670;23.354;2023-01-16T00:50:00;50.90;;;25.07;;
20621;SDS011;10470;42.670;23.354;2023-01-16T00:52:45;52.27;;;25.30;;
20621;SDS011;10470;42.670;23.354;2023-01-16T00:55:32;50.77;;;25.23;;
20621;SDS011;10470;42.670;23.354;2023-01-16T00:58:18;50.17;;;24.87;;
20621;SDS011;10470;42.670;23.354;2023-01-16T01:01:04;47.63;;;24.50;;
20621;SDS011;10470;42.670;23.354;2023-01-16T01:03:50;45.13;;;23.40;;
20621;SDS011;10470;42.670;23.354;2023-01-16T01:06:36;52.27;;;26.37;;
20621;SDS011;10470;42.670;23.354;2023-01-16T01:09:21;51.23;;;24.67;;
20621;SDS011;10470;42.670;23.354;2023-01-16T01:12:06;52.53;;;24.90;;
20621;SDS011;10470;42.670;23.354;2023-01-16T01:14:52;50.63;;;23.63;;
20621;SDS011;10470;42.670;23.354;2023-01-16T01:17:37;53.70;;;24.90;;
20621;SDS011;10470;42.670;23.354;2023-01-16T01:20:23;49.97;;;23.97;;
20621;SDS011;10470;42.670;23.354;2023-01-16T01:23:09;52.17;;;24.80;;
20621;SDS011;10470;42.670;23.354;2023-01-16T01:25:54;51.60;;;24.73;;
20621;SDS011;10470;42.670;23.354;2023-01-16T01:28:40;50.10;;;24.40;;
20621;SDS011;10470;42.670;23.354;2023-01-16T01:31:25;48.03;;;24.47;;
20621;SDS011;10470;42.670;23.354;2023-01-16T01:34:11;52.57;;;25.37;;
20621;SDS011;10470;42.670;23.354;2023-01-16T01:36:56;49.53;;;24.53;;
20621;SDS011;10470;42.670;23.354;2023-01-16T01:39:42;49.10;;;24.77;;
20621;SDS011;10470;42.670;23.354;2023-01-16T01:42:10;49.20;;;23.47;;
20621;SDS011;10470;42.670;23.354;2023-01-16T01:56:49;50.97;;;25.03;;
20621;SDS011;10470;42.670;23.354;2023-01-16T01:59:41;52.70;;;25.30;;
20621;SDS011;10470;42.670;23.354;2023-01-16T02:02:34;52.40;;;23.67;;
20621;SDS011;10470;42.670;23.354;2023-01-16T02:05:24;50.37;;;23.87;;
20621;SDS011;10470;42.670;23.354;2023-01-16T02:08:14;52.97;;;24.07;;
20621;SDS011;10470;42.670;23.354;2023-01-16T02:14:11;55.83;;;22.63;;
20621;SDS011;10470;42.670;23.354;2023-01-16T02:17:04;55.30;;;24.17;;
20621;SDS011;10470;42.670;23.354;2023-01-16T02:32:44;45.53;;;21.63;;
20621;SDS011;10470;42.670;23.354;2023-01-16T02:35:53;47.00;;;19.83;;
20621;SDS011;10470;42.670;23.354;2023-01-16T02:39:06;40.10;;;18.30;;
20621;SDS011;10470;42.670;23.354;2023-01-16T02:41:53;48.07;;;20.83;;
20621;SDS011;10470;42.670;23.354;2023-01-16T02:45:03;47.13;;;21.53;;
20621;SDS011;10470;42.670;23.354;2023-01-16T02:50:58;48.80;;;22.00;;
20621;SDS011;10470;42.670;23.354;2023-01-16T02:54:10;55.40;;;22.13;;
20621;SDS011;10470;42.670;23.354;2023-01-16T02:57:21;52.27;;;22.93;;
20621;SDS011;10470;42.670;23.354;2023-01-16T03:00:10;55.93;;;22.40;;
20621;SDS011;10470;42.670;23.354;2023-01-16T03:03:01;56.93;;;23.23;;
20621;SDS011;10470;42.670;23.354;2023-01-16T03:05:48;54.20;;;22.73;;
20621;SDS011;10470;42.670;23.354;2023-01-16T03:11:47;55.13;;;22.63;;
20621;SDS011;10470;42.670;23.354;2023-01-16T03:21:12;44.10;;;19.73;;
20621;SDS011;10470;42.670;23.354;2023-01-16T03:27:42;43.00;;;19.47;;
20621;SDS011;10470;42.670;23.354;2023-01-16T03:36:31;44.93;;;19.30;;
20621;SDS011;10470;42.670;23.354;2023-01-16T03:39:22;48.17;;;18.80;;
20621;SDS011;10470;42.670;23.354;2023-01-16T03:42:11;50.20;;;20.67;;
20621;SDS011;10470;42.670;23.354;2023-01-16T03:45:02;60.27;;;20.27;;
20621;SDS011;10470;42.670;23.354;2023-01-16T03:48:03;54.13;;;20.30;;
20621;SDS011;10470;42.670;23.354;2023-01-16T03:51:01;49.13;;;19.57;;
20621;SDS011;10470;42.670;23.354;2023-01-16T03:54:38;53.87;;;21.10;;
20621;SDS011;10470;42.670;23.354;2023-01-16T03:57:15;59.50;;;18.90;;
20621;SDS011;10470;42.670;23.354;2023-01-16T04:00:06;65.20;;;19.53;;
20621;SDS011;10470;42.670;23.354;2023-01-16T04:02:54;49.63;;;18.57;;
20621;SDS011;10470;42.670;23.354;2023-01-16T04:05:59;46.20;;;18.97;;
20621;SDS011;10470;42.670;23.354;2023-01-16T04:08:53;46.67;;;19.10;;
20621;SDS011;10470;42.670;23.354;2023-01-16T04:11:29;49.80;;;18.53;;
20621;SDS011;10470;42.670;23.354;2023-01-16T04:14:17;50.43;;;18.43;;
20621;SDS011;10470;42.670;23.354;2023-01-16T04:17:06;51.83;;;19.30;;
20621;SDS011;10470;42.670;23.354;2023-01-16T04:19:51;63.60;;;19.73;;
20621;SDS011;10470;42.670;23.354;2023-01-16T04:22:37;65.13;;;20.97;;
20621;SDS011;10470;42.670;23.354;2023-01-16T04:25:22;100.47;;;21.87;;
20621;SDS011;10470;42.670;23.354;2023-01-16T04:28:08;57.03;;;21.00;;
20621;SDS011;10470;42.670;23.354;2023-01-16T04:30:53;71.33;;;21.40;;
20621;SDS011;10470;42.670;23.354;2023-01-16T04:33:39;76.77;;;21.20;;
20621;SDS011;10470;42.670;23.354;2023-01-16T04:36:24;104.03;;;22.47;;
20621;SDS011;10470;42.670;23.354;2023-01-16T04:39:10;66.80;;;22.10;;
20621;SDS011;10470;42.670;23.354;2023-01-16T04:41:56;67.57;;;22.53;;
20621;SDS011;10470;42.670;23.354;2023-01-16T04:44:41;88.60;;;24.93;;
20621;SDS011;10470;42.670;23.354;2023-01-16T04:47:27;95.70;;;23.37;;
20621;SDS011;10470;42.670;23.354;2023-01-16T04:50:12;73.27;;;23.33;;
20621;SDS011;10470;42.670;23.354;2023-01-16T04:52:58;67.30;;;25.13;;
20621;SDS011;10470;42.670;23.354;2023-01-16T04:55:44;97.63;;;22.93;;
20621;SDS011;10470;42.670;23.354;2023-01-16T04:58:29;70.53;;;22.63;;
20621;SDS011;10470;42.670;23.354;2023-01-16T05:01:14;118.97;;;26.53;;
20621;SDS011;10470;42.670;23.354;2023-01-16T05:03:48;95.43;;;28.33;;
20621;SDS011;10470;42.670;23.354;2023-01-16T05:06:34;83.53;;;22.67;;
20621;SDS011;10470;42.670;23.354;2023-01-16T05:09:20;53.53;;;19.37;;
20621;SDS011;10470;42.670;23.354;2023-01-16T05:12:06;88.67;;;22.97;;
20621;SDS011;10470;42.670;23.354;2023-01-16T05:14:51;73.63;;;21.80;;
20621;SDS011;10470;42.670;23.354;2023-01-16T05:17:37;79.20;;;19.93;;
20621;SDS011;10470;42.670;23.354;2023-01-16T05:20:22;75.60;;;21.63;;
20621;SDS011;10470;42.670;23.354;2023-01-16T05:23:07;98.77;;;26.93;;
20621;SDS011;10470;42.670;23.354;2023-01-16T05:25:55;69.23;;;24.40;;
20621;SDS011;10470;42.670;23.354;2023-01-16T05:28:41;87.23;;;28.70;;
20621;SDS011;10470;42.670;23.354;2023-01-16T05:31:26;90.80;;;26.93;;
20621;SDS011;10470;42.670;23.354;2023-01-16T05:34:12;113.30;;;25.13;;
20621;SDS011;10470;42.670;23.354;2023-01-16T05:36:57;103.83;;;27.07;;
20621;SDS011;10470;42.670;23.354;2023-01-16T05:39:43;78.67;;;23.03;;
20621;SDS011;10470;42.670;23.354;2023-01-16T05:42:28;109.87;;;24.83;;
20621;SDS011;10470;42.670;23.354;2023-01-16T05:45:14;76.07;;;24.70;;
20621;SDS011;10470;42.670;23.354;2023-01-16T05:48:00;101.67;;;23.53;;
20621;SDS011;10470;42.670;23.354;2023-01-16T05:50:45;72.47;;;23.87;;
20621;SDS011;10470;42.670;23.354;2023-01-16T05:53:31;82.53;;;21.70;;
20621;SDS011;10470;42.670;23.354;2023-01-16T05:56:12;75.20;;;23.73;;
20621;SDS011;10470;42.670;23.354;2023-01-16T05:58:57;88.67;;;23.57;;
20621;SDS011;10470;42.670;23.354;2023-01-16T06:01:43;73.90;;;24.07;;
20621;SDS011;10470;42.670;23.354;2023-01-16T06:04:28;75.40;;;26.20;;
20621;SDS011;10470;42.670;23.354;2023-01-16T06:07:14;72.03;;;24.63;;
20621;SDS011;10470;42.670;23.354;2023-01-16T06:09:59;92.80;;;25.33;;
20621;SDS011;10470;42.670;23.354;2023-01-16T06:12:45;73.87;;;26.70;;
20621;SDS011;10470;42.670;23.354;2023-01-16T06:15:30;74.60;;;26.30;;
20621;SDS011;10470;42.670;23.354;2023-01-16T06:18:16;89.67;;;27.47;;
20621;SDS011;10470;42.670;23.354;2023-01-16T06:21:01;71.07;;;26.00;;
20621;SDS011;10470;42.670;23.354;2023-01-16T06:23:47;71.03;;;26.07;;
20621;SDS011;10470;42.670;23.354;2023-01-16T06:26:32;75.17;;;26.53;;
20621;SDS011;10470;42.670;23.354;2023-01-16T06:29:18;79.17;;;27.57;;
20621;SDS011;10470;42.670;23.354;2023-01-16T06:32:03;73.30;;;26.90;;
20621;SDS011;10470;42.670;23.354;2023-01-16T06:34:49;91.50;;;27.97;;
20621;SDS011;10470;42.670;23.354;2023-01-16T06:37:34;82.70;;;30.63;;
20621;SDS011;10470;42.670;23.354;2023-01-16T06:40:20;79.63;;;31.60;;
20621;SDS011;10470;42.670;23.354;2023-01-16T06:43:05;96.67;;;30.43;;
20621;SDS011;10470;42.670;23.354;2023-01-16T06:45:51;79.67;;;30.27;;
20621;SDS011;10470;42.670;23.354;2023-01-16T06:48:35;80.17;;;30.23;;
20621;SDS011;10470;42.670;23.354;2023-01-16T06:51:21;81.70;;;30.60;;
20621;SDS011;10470;42.670;23.354;2023-01-16T06:54:06;77.10;;;29.63;;
20621;SDS011;10470;42.670;23.354;2023-01-16T06:56:52;81.57;;;29.47;;
20621;SDS011;10470;42.670;23.354;2023-01-16T06:59:38;74.37;;;29.70;;
20621;SDS011;10470;42.670;23.354;2023-01-16T07:02:23;71.67;;;27.57;;
20621;SDS011;10470;42.670;23.354;2023-01-16T07:05:09;79.27;;;29.10;;
20621;SDS011;10470;42.670;23.354;2023-01-16T07:07:55;72.67;;;27.53;;
20621;SDS011;10470;42.670;23.354;2023-01-16T07:10:41;70.07;;;27.10;;
20621;SDS011;10470;42.670;23.354;2023-01-16T07:13:27;64.80;;;27.50;;
20621;SDS011;10470;42.670;23.354;2023-01-16T07:16:14;67.13;;;25.70;;
20621;SDS011;10470;42.670;23.354;2023-01-16T07:19:20;74.73;;;27.40;;
20621;SDS011;10470;42.670;23.354;2023-01-16T07:22:24;69.70;;;26.63;;
20621;SDS011;10470;42.670;23.354;2023-01-16T07:25:25;64.03;;;26.40;;
20621;SDS011;10470;42.670;23.354;2023-01-16T07:28:17;64.60;;;27.07;;
20621;SDS011;10470;42.670;23.354;2023-01-16T07:31:03;68.13;;;26.50;;
20621;SDS011;10470;42.670;23.354;2023-01-16T07:33:34;70.00;;;28.37;;
20621;SDS011;10470;42.670;23.354;2023-01-16T07:36:19;66.63;;;25.83;;
20621;SDS011;10470;42.670;23.354;2023-01-16T07:39:05;65.43;;;26.30;;
20621;SDS011;10470;42.670;23.354;2023-01-16T07:41:50;67.03;;;27.90;;
20621;SDS011;10470;42.670;23.354;2023-01-16T07:44:37;60.43;;;26.17;;
20621;SDS011;10470;42.670;23.354;2023-01-16T07:47:22;63.93;;;27.20;;
20621;SDS011;10470;42.670;23.354;2023-01-16T07:50:08;64.77;;;28.30;;
20621;SDS011;10470;42.670;23.354;2023-01-16T07:52:54;67.97;;;28.00;;
20621;SDS011;10470;42.670;23.354;2023-01-16T07:55:39;64.67;;;28.33;;
20621;SDS011;10470;42.670;23.354;2023-01-16T07:58:25;70.53;;;29.03;;
20621;SDS011;10470;42.670;23.354;2023-01-16T08:01:11;70.20;;;27.87;;
20621;SDS011;10470;42.670;23.354;2023-01-16T08:03:57;65.93;;;28.30;;
20621;SDS011;10470;42.670;23.354;2023-01-16T08:06:42;61.90;;;27.47;;
20621;SDS011;10470;42.670;23.354;2023-01-16T08:09:29;61.03;;;26.87;;
20621;SDS011;10470;42.670;23.354;2023-01-16T08:12:15;76.37;;;30.10;;
20621;SDS011;10470;42.670;23.354;2023-01-16T08:15:00;69.23;;;29.30;;
20621;SDS011;10470;42.670;23.354;2023-01-16T08:17:46;72.73;;;30.17;;
20621;SDS011;10470;42.670;23.354;2023-01-16T08:20:31;79.67;;;32.17;;
20621;SDS011;10470;42.670;23.354;2023-01-16T08:23:17;76.97;;;32.07;;
20621;SDS011;10470;42.670;23.354;2023-01-16T08:25:52;100.10;;;36.57;;
20621;SDS011;10470;42.670;23.354;2023-01-16T08:28:38;97.50;;;37.53;;
20621;SDS011;10470;42.670;23.354;2023-01-16T08:31:23;91.67;;;36.00;;
20621;SDS011;10470;42.670;23.354;2023-01-16T08:34:09;92.37;;;37.37;;
20621;SDS011;10470;42.670;23.354;2023-01-16T08:36:54;95.70;;;37.93;;
20621;SDS011;10470;42.670;23.354;2023-01-16T08:39:40;92.53;;;35.57;;
20621;SDS011;10470;42.670;23.354;2023-01-16T08:42:26;92.07;;;37.23;;
20621;SDS011;10470;42.670;23.354;2023-01-16T08:45:30;89.83;;;37.53;;
20621;SDS011;10470;42.670;23.354;2023-01-16T08:48:23;81.77;;;34.43;;
20621;SDS011;10470;42.670;23.354;2023-01-16T08:51:29;78.67;;;33.70;;
20621;SDS011;10470;42.670;23.354;2023-01-16T08:54:15;84.07;;;34.23;;
20621;SDS011;10470;42.670;23.354;2023-01-16T08:57:01;82.50;;;33.77;;
20621;SDS011;10470;42.670;23.354;2023-01-16T08:59:46;79.53;;;34.63;;
20621;SDS011;10470;42.670;23.354;2023-01-16T09:02:31;79.93;;;35.23;;
20621;SDS011;10470;42.670;23.354;2023-01-16T09:05:20;77.57;;;32.40;;
20621;SDS011;10470;42.670;23.354;2023-01-16T09:08:06;79.00;;;32.53;;
20621;SDS011;10470;42.670;23.354;2023-01-16T09:10:52;77.80;;;32.07;;
20621;SDS011;10470;42.670;23.354;2023-01-16T09:13:56;76.63;;;32.20;;
20621;SDS011;10470;42.670;23.354;2023-01-16T09:16:45;73.50;;;33.03;;
20621;SDS011;10470;42.670;23.354;2023-01-16T09:19:31;74.23;;;32.80;;
20621;SDS011;10470;42.670;23.354;2023-01-16T09:22:16;81.83;;;34.73;;
20621;SDS011;10470;42.670;23.354;2023-01-16T09:25:02;76.13;;;34.73;;
20621;SDS011;10470;42.670;23.354;2023-01-16T09:27:48;85.60;;;34.90;;
20621;SDS011;10470;42.670;23.354;2023-01-16T09:30:33;79.47;;;34.40;;
20621;SDS011;10470;42.670;23.354;2023-01-16T09:33:19;72.87;;;32.83;;
20621;SDS011;10470;42.670;23.354;2023-01-16T09:36:04;74.13;;;33.07;;
20621;SDS011;10470;42.670;23.354;2023-01-16T09:38:50;72.27;;;32.97;;
20621;SDS011;10470;42.670;23.354;2023-01-16T09:41:37;63.47;;;27.73;;
20621;SDS011;10470;42.670;23.354;2023-01-16T09:44:49;59.53;;;27.53;;
20621;SDS011;10470;42.670;23.354;2023-01-16T09:47:36;58.53;;;27.00;;
20621;SDS011;10470;42.670;23.354;2023-01-16T09:56:38;56.10;;;27.53;;
20621;SDS011;10470;42.670;23.354;2023-01-16T09:59:49;53.57;;;25.57;;
20621;SDS011;10470;42.670;23.354;2023-01-16T10:02:39;58.23;;;27.73;;
20621;SDS011;10470;42.670;23.354;2023-01-16T10:05:28;68.13;;;28.67;;
20621;SDS011;10470;42.670;23.354;2023-01-16T10:08:42;51.47;;;24.93;;
20621;SDS011;10470;42.670;23.354;2023-01-16T10:11:43;46.97;;;23.77;;
20621;SDS011;10470;42.670;23.354;2023-01-16T10:23:52;51.07;;;24.20;;
20621;SDS011;10470;42.670;23.354;2023-01-16T10:26:49;50.73;;;24.70;;
20621;SDS011;10470;42.670;23.354;2023-01-16T10:29:44;53.73;;;27.13;;
20621;SDS011;10470;42.670;23.354;2023-01-16T10:32:36;52.10;;;25.30;;
20621;SDS011;10470;42.670;23.354;2023-01-16T10:35:35;46.57;;;23.20;;
20621;SDS011;10470;42.670;23.354;2023-01-16T10:38:40;37.80;;;18.50;;
20621;SDS011;10470;42.670;23.354;2023-01-16T10:41:34;36.37;;;19.47;;
20621;SDS011;10470;42.670;23.354;2023-01-16T10:44:54;39.50;;;19.67;;
20621;SDS011;10470;42.670;23.354;2023-01-16T10:47:59;42.10;;;21.83;;
20621;SDS011;10470;42.670;23.354;2023-01-16T10:51:04;42.80;;;21.07;;
20621;SDS011;10470;42.670;23.354;2023-01-16T10:53:51;42.27;;;22.33;;
20621;SDS011;10470;42.670;23.354;2023-01-16T10:56:36;55.07;;;28.87;;
20621;SDS011;10470;42.670;23.354;2023-01-16T10:59:25;42.93;;;22.67;;
20621;SDS011;10470;42.670;23.354;2023-01-16T11:02:38;45.63;;;23.17;;
20621;SDS011;10470;42.670;23.354;2023-01-16T11:05:33;40.20;;;20.27;;
20621;SDS011;10470;42.670;23.354;2023-01-16T11:08:20;38.57;;;19.80;;
20621;SDS011;10470;42.670;23.354;2023-01-16T11:11:09;40.90;;;21.13;;
20621;SDS011;10470;42.670;23.354;2023-01-16T11:14:28;41.57;;;22.23;;
20621;SDS011;10470;42.670;23.354;2023-01-16T11:17:37;42.97;;;22.67;;
20621;SDS011;10470;42.670;23.354;2023-01-16T11:20:41;42.33;;;22.30;;
20621;SDS011;10470;42.670;23.354;2023-01-16T11:23:35;39.67;;;20.77;;
20621;SDS011;10470;42.670;23.354;2023-01-16T11:26:10;38.43;;;20.70;;
20621;SDS011;10470;42.670;23.354;2023-01-16T11:28:56;40.93;;;20.50;;
20621;SDS011;10470;42.670;23.354;2023-01-16T11:31:54;34.43;;;18.47;;
20621;SDS011;10470;42.670;23.354;2023-01-16T11:34:45;31.43;;;17.33;;
20621;SDS011;10470;42.670;23.354;2023-01-16T11:37:32;31.27;;;17.93;;
20621;SDS011;10470;42.670;23.354;2023-01-16T11:40:18;33.03;;;17.60;;
20621;SDS011;10470;42.670;23.354;2023-01-16T11:43:11;30.23;;;17.27;;
20621;SDS011;10470;42.670;23.354;2023-01-16T11:49:23;29.13;;;17.17;;
20621;SDS011;10470;42.670;23.354;2023-01-16T11:52:12;26.00;;;15.73;;
20621;SDS011;10470;42.670;23.354;2023-01-16T11:55:15;31.43;;;18.00;;
20621;SDS011;10470;42.670;23.354;2023-01-16T11:58:06;34.27;;;19.13;;
20621;SDS011;10470;42.670;23.354;2023-01-16T12:04:23;32.80;;;18.60;;
20621;SDS011;10470;42.670;23.354;2023-01-16T12:10:05;28.53;;;17.53;;
20621;SDS011;10470;42.670;23.354;2023-01-16T12:13:05;36.67;;;20.23;;
20621;SDS011;10470;42.670;23.354;2023-01-16T12:16:15;35.50;;;19.43;;
20621;SDS011;10470;42.670;23.354;2023-01-16T12:44:21;28.13;;;16.43;;
20621;SDS011;10470;42.670;23.354;2023-01-16T12:47:33;31.23;;;16.00;;
20621;SDS011;10470;42.670;23.354;2023-01-16T12:59:51;27.63;;;16.03;;
20621;SDS011;10470;42.670;23.354;2023-01-16T13:02:41;27.63;;;15.50;;
20621;SDS011;10470;42.670;23.354;2023-01-16T13:05:33;35.07;;;19.87;;
20621;SDS011;10470;42.670;23.354;2023-01-16T13:11:11;23.63;;;13.93;;
20621;SDS011;10470;42.670;23.354;2023-01-16T13:14:22;27.97;;;14.60;;
20621;SDS011;10470;42.670;23.354;2023-01-16T13:17:11;24.50;;;14.43;;
20621;SDS011;10470;42.670;23.354;2023-01-16T13:20:02;31.23;;;16.67;;
20621;SDS011;10470;42.670;23.354;2023-01-16T13:22:51;29.37;;;15.90;;
20621;SDS011;10470;42.670;23.354;2023-01-16T13:25:41;24.47;;;14.50;;
20621;SDS011;10470;42.670;23.354;2023-01-16T13:28:33;21.83;;;12.97;;
20621;SDS011;10470;42.670;23.354;2023-01-16T13:31:30;23.07;;;13.80;;
20621;SDS011;10470;42.670;23.354;2023-01-16T13:40:41;23.13;;;12.03;;
20621;SDS011;10470;42.670;23.354;2023-01-16T13:43:40;23.03;;;12.77;;
20621;SDS011;10470;42.670;23.354;2023-01-16T13:46:49;25.07;;;13.30;;
20621;SDS011;10470;42.670;23.354;2023-01-16T13:49:34;23.97;;;13.23;;
20621;SDS011;10470;42.670;23.354;2023-01-16T13:52:26;23.37;;;13.67;;
20621;SDS011;10470;42.670;23.354;2023-01-16T13:55:32;20.23;;;12.23;;
20621;SDS011;10470;42.670;23.354;2023-01-16T13:58:20;35.33;;;19.07;;
20621;SDS011;10470;42.670;23.354;2023-01-16T14:01:27;31.10;;;15.43;;
20621;SDS011;10470;42.670;23.354;2023-01-16T14:04:32;22.97;;;12.93;;
20621;SDS011;10470;42.670;23.354;2023-01-16T14:13:41;26.03;;;14.50;;
20621;SDS011;10470;42.670;23.354;2023-01-16T14:16:32;25.27;;;14.67;;
20621;SDS011;10470;42.670;23.354;2023-01-16T14:19:23;25.83;;;15.27;;
20621;SDS011;10470;42.670;23.354;2023-01-16T14:22:16;31.20;;;16.63;;
20621;SDS011;10470;42.670;23.354;2023-01-16T14:25:04;22.67;;;13.30;;
20621;SDS011;10470;42.670;23.354;2023-01-16T14:27:52;25.07;;;14.20;;
20621;SDS011;10470;42.670;23.354;2023-01-16T14:30:39;26.40;;;13.93;;
20621;SDS011;10470;42.670;23.354;2023-01-16T14:33:25;21.50;;;12.23;;
20621;SDS011;10470;42.670;23.354;2023-01-16T14:36:13;27.63;;;14.50;;
20621;SDS011;10470;42.670;23.354;2023-01-16T14:38:59;29.20;;;16.20;;
20621;SDS011;10470;42.670;23.354;2023-01-16T14:41:45;28.47;;;15.60;;
20621;SDS011;10470;42.670;23.354;2023-01-16T14:44:58;29.40;;;14.87;;
20621;SDS011;10470;42.670;23.354;2023-01-16T14:51:16;25.90;;;14.17;;
20621;SDS011;10470;42.670;23.354;2023-01-16T14:54:34;24.97;;;14.43;;
20621;SDS011;10470;42.670;23.354;2023-01-16T14:57:39;30.60;;;14.17;;
20621;SDS011;10470;42.670;23.354;2023-01-16T15:00:26;24.60;;;14.10;;
20621;SDS011;10470;42.670;23.354;2023-01-16T15:03:19;26.83;;;15.27;;
20621;SDS011;10470;42.670;23.354;2023-01-16T15:06:08;26.67;;;14.27;;
20621;SDS011;10470;42.670;23.354;2023-01-16T15:08:54;27.07;;;14.80;;
20621;SDS011;10470;42.670;23.354;2023-01-16T15:11:41;27.50;;;15.13;;
20621;SDS011;10470;42.670;23.354;2023-01-16T15:14:37;27.60;;;15.23;;
20621;SDS011;10470;42.670;23.354;2023-01-16T15:20:42;32.90;;;16.57;;
20621;SDS011;10470;42.670;23.354;2023-01-16T15:23:47;30.50;;;15.33;;
20621;SDS011;10470;42.670;23.354;2023-01-16T15:29:44;30.97;;;16.20;;
20621;SDS011;10470;42.670;23.354;2023-01-16T15:36:02;36.53;;;18.50;;
20621;SDS011;10470;42.670;23.354;2023-01-16T15:38:55;35.53;;;18.30;;
20621;SDS011;10470;42.670;23.354;2023-01-16T15:41:42;33.50;;;16.90;;
20621;SDS011;10470;42.670;23.354;2023-01-16T15:44:50;35.00;;;18.50;;
20621;SDS011;10470;42.670;23.354;2023-01-16T15:51:11;30.27;;;16.37;;
20621;SDS011;10470;42.670;23.354;2023-01-16T15:54:00;35.50;;;18.83;;
20621;SDS011;10470;42.670;23.354;2023-01-16T15:56:47;31.50;;;17.20;;
20621;SDS011;10470;42.670;23.354;2023-01-16T15:59:34;31.83;;;16.00;;
20621;SDS011;10470;42.670;23.354;2023-01-16T16:02:24;42.33;;;22.97;;
20621;SDS011;10470;42.670;23.354;2023-01-16T16:05:12;39.70;;;21.63;;
20621;SDS011;10470;42.670;23.354;2023-01-16T16:08:01;33.77;;;17.30;;
20621;SDS011;10470;42.670;23.354;2023-01-16T16:10:49;38.07;;;19.77;;
20621;SDS011;10470;42.670;23.354;2023-01-16T16:13:55;35.37;;;18.97;;
20621;SDS011;10470;42.670;23.354;2023-01-16T16:16:41;32.30;;;18.10;;
20621;SDS011;10470;42.670;23.354;2023-01-16T16:19:50;37.10;;;20.90;;
20621;SDS011;10470;42.670;23.354;2023-01-16T16:22:35;39.40;;;21.53;;
20621;SDS011;10470;42.670;23.354;2023-01-16T16:28:44;36.40;;;19.07;;
20621;SDS011;10470;42.670;23.354;2023-01-16T16:31:32;34.73;;;18.47;;
20621;SDS011;10470;42.670;23.354;2023-01-16T16:34:20;34.23;;;18.83;;
20621;SDS011;10470;42.670;23.354;2023-01-16T16:37:12;34.07;;;17.20;;
20621;SDS011;10470;42.670;23.354;2023-01-16T16:43:00;32.17;;;16.63;;
20621;SDS011;10470;42.670;23.354;2023-01-16T16:45:45;31.30;;;16.87;;
20621;SDS011;10470;42.670;23.354;2023-01-16T16:48:31;28.43;;;15.43;;
20621;SDS011;10470;42.670;23.354;2023-01-16T16:54:06;30.43;;;15.77;;
20621;SDS011;10470;42.670;23.354;2023-01-16T16:56:57;31.63;;;16.73;;
20621;SDS011;10470;42.670;23.354;2023-01-16T16:59:43;29.00;;;15.90;;
20621;SDS011;10470;42.670;23.354;2023-01-16T17:02:29;30.33;;;15.73;;
20621;SDS011;10470;42.670;23.354;2023-01-16T17:05:16;31.37;;;14.47;;
20621;SDS011;10470;42.670;23.354;2023-01-16T17:08:05;30.57;;;16.10;;
20621;SDS011;10470;42.670;23.354;2023-01-16T17:10:51;30.13;;;15.57;;
20621;SDS011;10470;42.670;23.354;2023-01-16T17:13:37;31.10;;;15.90;;
20621;SDS011;10470;42.670;23.354;2023-01-16T17:16:23;30.20;;;16.93;;
20621;SDS011;10470;42.670;23.354;2023-01-16T17:19:21;29.43;;;16.20;;
20621;SDS011;10470;42.670;23.354;2023-01-16T17:22:13;32.63;;;16.17;;
20621;SDS011;10470;42.670;23.354;2023-01-16T17:24:54;30.53;;;16.60;;
20621;SDS011;10470;42.670;23.354;2023-01-16T17:27:39;33.63;;;16.80;;
20621;SDS011;10470;42.670;23.354;2023-01-16T17:30:26;32.27;;;17.27;;
20621;SDS011;10470;42.670;23.354;2023-01-16T17:33:12;33.30;;;16.13;;
20621;SDS011;10470;42.670;23.354;2023-01-16T17:36:00;32.13;;;16.47;;
20621;SDS011;10470;42.670;23.354;2023-01-16T17:38:54;30.77;;;15.77;;
20621;SDS011;10470;42.670;23.354;2023-01-16T17:41:40;33.77;;;16.57;;
20621;SDS011;10470;42.670;23.354;2023-01-16T17:44:26;35.60;;;18.40;;
20621;SDS011;10470;42.670;23.354;2023-01-16T17:47:27;35.50;;;18.23;;
20621;SDS011;10470;42.670;23.354;2023-01-16T17:50:13;32.67;;;17.33;;
20621;SDS011;10470;42.670;23.354;2023-01-16T17:53:11;38.27;;;17.57;;
20621;SDS011;10470;42.670;23.354;2023-01-16T17:55:59;36.10;;;16.97;;
20621;SDS011;10470;42.670;23.354;2023-01-16T17:58:48;31.80;;;16.97;;
20621;SDS011;10470;42.670;23.354;2023-01-16T18:01:34;35.60;;;18.87;;
20621;SDS011;10470;42.670;23.354;2023-01-16T18:04:21;32.17;;;17.23;;
20621;SDS011;10470;42.670;23.354;2023-01-16T18:07:07;31.60;;;16.07;;
20621;SDS011;10470;42.670;23.354;2023-01-16T18:09:53;30.23;;;16.57;;
20621;SDS011;10470;42.670;23.354;2023-01-16T18:12:38;33.07;;;17.17;;
20621;SDS011;10470;42.670;23.354;2023-01-16T18:15:43;32.97;;;17.17;;
20621;SDS011;10470;42.670;23.354;2023-01-16T18:18:47;33.47;;;16.67;;
20621;SDS011;10470;42.670;23.354;2023-01-16T18:21:33;36.20;;;16.97;;
20621;SDS011;10470;42.670;23.354;2023-01-16T18:24:41;34.23;;;16.13;;
20621;SDS011;10470;42.670;23.354;2023-01-16T18:27:28;37.03;;;18.30;;
20621;SDS011;10470;42.670;23.354;2023-01-16T18:30:13;36.23;;;18.10;;
20621;SDS011;10470;42.670;23.354;2023-01-16T18:32:46;39.33;;;17.93;;
20621;SDS011;10470;42.670;23.354;2023-01-16T18:35:31;37.97;;;18.23;;
20621;SDS011;10470;42.670;23.354;2023-01-16T18:38:17;39.27;;;18.80;;
20621;SDS011;10470;42.670;23.354;2023-01-16T18:41:21;33.60;;;18.83;;
20621;SDS011;10470;42.670;23.354;2023-01-16T18:44:25;42.20;;;20.83;;
20621;SDS011;10470;42.670;23.354;2023-01-16T18:47:29;49.90;;;21.63;;
20621;SDS011;10470;42.670;23.354;2023-01-16T18:50:33;44.67;;;21.70;;